Time;durP1;ratioP1;P1;durP2;ratioP2;P2;SDS_P1;SDS_P2;PMS_P1;PMS_P2;Temp;Humidity;BMP_temperature;BMP_pressure;BME280_temperature;BME280_humidity;BME280_pressure;Samples;Min_cycle;Max_cycle;Signal;HPM_P1;HPM_P2
2023/08/15 00:00:11;;;;;;;6.80;6.10;;;;;;;18.47;73.86;101404.69;1709469;81;21302;-56
2023/08/15 00:05:47;;;;;;;6.67;6.05;;;;;;;18.39;73.97;101406.25;1709009;80;21317;-57
2023/08/15 00:11:21;;;;;;;10.93;6.17;;;;;;;18.36;74.16;101416.30;1714662;80;21981;-56
2023/08/15 00:14:27;;;;;;;7.15;5.92;;;;;;;18.35;74.23;101414.60;1691986;79;21239;-56
2023/08/15 00:20:03;;;;;;;8.18;6.15;;;;;;;18.30;74.39;101410.19;1710648;80;21347;-56
2023/08/15 00:25:38;;;;;;;7.08;6.10;;;;;;;18.27;74.50;101411.97;1707286;80;21397;-55
2023/08/15 00:31:13;;;;;;;12.18;6.60;;;;;;;18.25;74.74;101412.70;1715989;80;21422;-56
2023/08/15 00:36:50;;;;;;;12.35;6.08;;;;;;;18.24;74.92;101410.13;1710773;80;21250;-56
2023/08/15 00:42:27;;;;;;;8.78;6.72;;;;;;;18.19;74.99;101414.05;1710826;80;21290;-56
2023/08/15 00:48:02;;;;;;;8.25;6.62;;;;;;;18.17;75.12;101413.39;1706805;80;21287;-56
2023/08/15 00:53:37;;;;;;;9.53;6.90;;;;;;;18.15;75.38;101414.97;1708915;80;21827;-56
2023/08/15 01:01:39;;;;;;;7.25;6.53;;;;;;;18.15;75.59;101416.36;1705854;80;21930;-57
2023/08/15 01:07:18;;;;;;;9.08;6.95;;;;;;;18.10;75.63;101412.45;1708789;80;21587;-56
2023/08/15 01:10:16;;;;;;;10.43;6.55;;;;;;;18.11;75.71;101412.80;1683263;81;21176;-56
2023/08/15 01:13:34;;;;;;;8.55;6.90;;;;;;;18.09;75.75;101417.16;1709891;80;21235;-55
2023/08/15 01:19:48;;;;;;;9.98;6.42;;;;;;;18.06;76.00;101413.37;1702210;80;21719;-56
2023/08/15 01:25:25;;;;;;;9.35;6.53;;;;;;;18.05;76.11;101413.58;1686898;80;21351;-56
2023/08/15 01:28:31;;;;;;;9.95;6.22;;;;;;;18.03;76.13;101409.63;1710138;81;21304;-57
2023/08/15 01:31:43;;;;;;;8.68;6.58;;;;;;;18.01;76.13;101417.81;1714104;81;21907;-55
2023/08/15 01:35:02;;;;;;;9.45;6.70;;;;;;;17.98;76.15;101417.70;1706674;80;21216;-55
2023/08/15 01:38:12;;;;;;;8.30;6.12;;;;;;;17.96;76.25;101415.65;1707418;80;21244;-55
2023/08/15 01:43:47;;;;;;;7.20;6.15;;;;;;;17.90;76.31;101424.21;1707239;81;21247;-55
2023/08/15 01:51:51;;;;;;;10.40;5.97;;;;;;;17.83;76.40;101419.15;1709651;80;21267;-56
2023/08/15 01:54:57;;;;;;;8.30;6.25;;;;;;;17.83;76.45;101422.44;1701653;81;21910;-56
2023/08/15 02:00:32;;;;;;;9.55;6.78;;;;;;;17.78;76.63;101423.03;1700789;80;21235;-55
2023/08/15 02:06:08;;;;;;;10.08;6.05;;;;;;;17.78;76.78;101430.48;1678660;82;21224;-56
2023/08/15 02:11:44;;;;;;;6.10;5.17;;;;;;;17.77;76.88;101434.31;1692174;80;21243;-55
2023/08/15 02:17:18;;;;;;;8.10;5.60;;;;;;;17.71;76.90;101429.02;1702379;80;21632;-56
2023/08/15 02:22:54;;;;;;;6.67;4.60;;;;;;;17.65;76.85;101433.09;1711228;80;21866;-55
2023/08/15 02:28:31;;;;;;;8.83;5.62;;;;;;;17.60;76.85;101431.47;1709072;80;21290;-56
2023/08/15 02:34:06;;;;;;;7.33;5.67;;;;;;;17.55;77.04;101435.34;1682987;83;21451;-55
2023/08/15 02:39:43;;;;;;;8.25;6.35;;;;;;;17.56;77.33;101439.81;1707499;81;21291;-55
2023/08/15 02:47:49;;;;;;;12.30;6.22;;;;;;;17.59;77.70;101435.27;1682112;82;21846;-56
2023/08/15 02:53:25;;;;;;;8.33;6.67;;;;;;;17.63;77.95;101442.98;1708284;80;21232;-55
2023/08/15 02:58:59;;;;;;;12.25;7.05;;;;;;;17.67;78.14;101451.77;1697477;81;21284;-55
2023/08/15 03:02:06;;;;;;;10.28;6.90;;;;;;;17.67;78.08;101455.41;1715371;80;21810;-55
2023/08/15 03:07:40;;;;;;;9.33;7.33;;;;;;;17.69;78.25;101457.46;1707905;80;21293;-54
2023/08/15 03:10:46;;;;;;;11.93;7.30;;;;;;;17.72;78.31;101457.58;1683482;78;21248;-56
2023/08/15 03:16:22;;;;;;;9.38;7.12;;;;;;;17.75;78.45;101465.50;1705354;80;21383;-55
2023/08/15 03:21:58;;;;;;;10.70;7.90;;;;;;;17.82;78.60;101465.06;1705368;79;21319;-54
2023/08/15 03:25:05;;;;;;;9.90;7.97;;;;;;;17.85;78.62;101469.66;1709647;80;21890;-54
2023/08/15 03:30:43;;;;;;;12.58;7.83;;;;;;;17.90;78.64;101467.16;1697553;82;21454;-55
2023/08/15 03:33:41;;;;;;;9.28;7.22;;;;;;;17.93;78.70;101470.08;1701595;80;21257;-54
2023/08/15 03:39:17;;;;;;;11.00;7.50;;;;;;;18.00;78.87;101475.14;1705866;80;21332;-54
2023/08/15 03:44:51;;;;;;;9.50;8.33;;;;;;;18.08;79.03;101475.02;1713318;79;21927;-54
2023/08/15 03:50:28;;;;;;;8.90;8.00;;;;;;;18.20;79.25;101475.35;1703624;80;21879;-55
2023/08/15 03:56:03;;;;;;;10.68;7.78;;;;;;;18.30;79.34;101478.11;1697518;79;21358;-54
2023/08/15 04:01:37;;;;;;;13.62;9.53;;;;;;;18.41;79.42;101484.53;1708724;79;21446;-55
2023/08/15 04:09:44;;;;;;;12.05;9.38;;;;;;;18.59;79.67;101489.08;1709428;80;21702;-55
2023/08/15 04:12:51;;;;;;;11.50;8.70;;;;;;;18.65;79.75;101491.03;1700253;80;21322;-54
2023/08/15 04:20:58;;;;;;;13.10;8.55;;;;;;;18.90;79.99;101474.25;1707374;81;21843;-54
2023/08/15 04:24:04;;;;;;;11.85;8.05;;;;;;;18.97;80.05;101484.00;1709274;80;21351;-55
2023/08/15 04:29:39;;;;;;;12.13;9.13;;;;;;;19.16;80.27;101488.30;1701314;80;21763;-55
2023/08/15 04:35:16;;;;;;;9.88;8.48;;;;;;;19.36;80.43;101491.75;1679448;81;21430;-55
2023/08/15 04:40:51;;;;;;;14.40;8.43;;;;;;;19.52;80.59;101495.58;1692839;80;21847;-55
2023/08/15 04:43:56;;;;;;;13.05;9.28;;;;;;;19.60;80.63;101497.63;1686474;81;21236;-55
2023/08/15 04:49:33;;;;;;;9.98;8.08;;;;;;;19.78;80.74;101492.88;1691015;80;21331;-56
2023/08/15 04:55:10;;;;;;;11.50;8.03;;;;;;;19.93;80.82;101490.25;1665950;81;21307;-54
2023/08/15 05:00:44;;;;;;;10.75;7.97;;;;;;;20.12;80.92;101499.17;1693650;80;21746;-55
2023/08/15 05:03:50;;;;;;;10.65;8.58;;;;;;;20.20;80.96;101496.78;1684916;80;21209;-54
2023/08/15 05:09:26;;;;;;;11.35;9.13;;;;;;;20.42;81.06;101499.14;1704300;80;22283;-54
2023/08/15 05:12:32;;;;;;;10.13;7.08;;;;;;;20.52;81.12;101497.33;1709287;79;21601;-56
2023/08/15 05:18:07;;;;;;;12.35;8.08;;;;;;;20.75;81.18;101493.59;1699554;80;21244;-55
2023/08/15 05:23:44;;;;;;;10.20;7.92;;;;;;;20.92;81.20;101489.28;1670846;81;21208;-56
2023/08/15 05:29:19;;;;;;;12.00;8.15;;;;;;;21.10;81.21;101486.73;1693453;80;21275;-56
2023/08/15 05:32:26;;;;;;;10.00;7.30;;;;;;;21.20;81.20;101490.45;1715656;80;21610;-55
2023/08/15 05:38:02;;;;;;;9.25;7.35;;;;;;;21.41;81.27;101488.23;1700649;80;21212;-56
2023/08/15 05:40:59;;;;;;;12.70;6.70;;;;;;;21.49;81.25;101487.13;1723949;78;21232;-55
2023/08/15 05:44:04;;;;;;;13.48;7.12;;;;;;;21.57;81.25;101489.14;1732083;79;21251;-55
2023/08/15 05:49:38;;;;;;;13.05;7.30;;;;;;;21.81;81.33;101477.80;1731999;82;21789;-55
2023/08/15 05:52:45;;;;;;;12.73;7.35;;;;;;;21.89;81.32;101481.20;1698501;80;21308;-56
2023/08/15 05:58:18;;;;;;;14.13;7.58;;;;;;;22.12;81.42;101482.87;1697782;79;21865;-55
2023/08/15 06:01:23;;;;;;;7.83;7.03;;;;;;;22.23;81.45;101489.12;1683022;80;21265;-56
2023/08/15 06:06:59;;;;;;;10.95;7.58;;;;;;;22.48;81.40;101481.33;1700088;81;21500;-55
2023/08/15 06:10:07;;;;;;;9.18;6.95;;;;;;;22.57;81.36;101478.59;1664074;81;21247;-57
2023/08/15 06:13:12;;;;;;;10.75;7.20;;;;;;;22.68;81.31;101485.70;1632198;83;21268;-55
2023/08/15 06:16:20;;;;;;;9.15;6.78;;;;;;;22.79;81.28;101482.69;1701342;81;21841;-55
2023/08/15 06:19:26;;;;;;;12.68;6.87;;;;;;;22.88;81.18;101486.92;1669683;81;21300;-55
2023/08/15 06:22:31;;;;;;;10.78;6.78;;;;;;;22.97;81.15;101490.59;1719628;79;21227;-56
2023/08/15 06:25:39;;;;;;;8.48;6.40;;;;;;;23.08;81.13;101488.43;1652723;82;21246;-55
2023/08/15 06:33:46;;;;;;;12.63;5.42;;;;;;;23.38;80.88;101492.22;1704024;80;22316;-54
2023/08/15 06:39:21;;;;;;;10.28;5.67;;;;;;;23.59;80.68;101490.89;1709785;80;21451;-53
2023/08/15 06:42:27;;;;;;;7.25;4.92;;;;;;;23.68;80.56;101500.66;1702307;79;21248;-56
2023/08/15 06:45:32;;;;;;;9.48;5.05;;;;;;;23.78;80.42;101498.17;1709554;79;21305;-55
2023/08/15 06:51:08;;;;;;;5.65;4.33;;;;;;;24.01;80.27;101501.64;1705525;78;21357;-54
2023/08/15 06:56:45;;;;;;;4.33;3.50;;;;;;;24.21;80.08;101508.69;1695812;80;21518;-55
2023/08/15 06:59:53;;;;;;;4.55;3.40;;;;;;;24.30;79.83;101507.78;1696594;80;21232;-57
2023/08/15 07:08:00;;;;;;;4.78;3.98;;;;;;;24.49;79.21;101496.29;1706591;80;22121;-54
2023/08/15 07:13:35;;;;;;;6.85;3.45;;;;;;;24.61;78.87;101487.35;1716315;79;21620;-55
2023/08/15 07:19:09;;;;;;;5.60;3.52;;;;;;;24.73;78.58;101485.47;1688581;81;21204;-54
2023/08/15 07:22:16;;;;;;;5.72;3.20;;;;;;;24.78;78.47;101482.77;1701188;80;21294;-55
2023/08/15 07:27:51;;;;;;;6.70;3.35;;;;;;;24.95;78.16;101484.32;1706135;81;21274;-55
2023/08/15 07:33:25;;;;;;;5.97;3.20;;;;;;;25.07;77.83;101474.52;1693731;80;21208;-55
2023/08/15 07:36:30;;;;;;;9.50;3.27;;;;;;;25.12;77.68;101474.64;1690339;81;21788;-57
2023/08/15 07:42:02;;;;;;;5.40;3.05;;;;;;;25.23;77.33;101480.79;1717892;80;22119;-56
2023/08/15 07:45:08;;;;;;;6.08;3.60;;;;;;;25.28;77.19;101482.28;1711033;79;21366;-56
2023/08/15 07:48:06;;;;;;;4.45;3.20;;;;;;;25.32;76.97;101475.96;1660145;81;21279;-55
2023/08/15 07:51:11;;;;;;;4.30;2.80;;;;;;;25.41;76.83;101486.27;1691118;80;21264;-56
2023/08/15 07:56:43;;;;;;;4.40;3.40;;;;;;;25.55;76.55;101484.35;1725367;80;22017;-53
2023/08/15 07:59:48;;;;;;;4.80;3.08;;;;;;;25.60;76.37;101484.47;1706660;78;21220;-56
2023/08/15 08:07:54;;;;;;;6.25;3.58;;;;;;;25.80;75.86;101484.05;1707431;80;21283;-55
2023/08/15 08:11:00;;;;;;;6.75;3.60;;;;;;;25.87;75.75;101486.14;1738411;80;21264;-54
2023/08/15 08:16:37;;;;;;;5.08;3.10;;;;;;;25.96;75.07;101481.83;1689358;80;21328;-54
2023/08/15 08:22:14;;;;;;;11.00;8.28;;;;;;;26.02;74.58;101475.28;1694439;80;21354;-53
2023/08/15 08:27:55;;;;;;;6.28;4.45;;;;;;;26.13;74.15;101475.20;1699223;78;21284;-57
2023/08/15 08:33:32;;;;;;;7.03;3.65;;;;;;;26.25;73.83;101470.94;1708851;80;21220;-51
2023/08/15 08:41:36;;;;;;;5.10;3.95;;;;;;;26.45;73.31;101465.14;1641739;84;21261;-54
2023/08/15 08:44:42;;;;;;;6.28;3.22;;;;;;;26.51;73.14;101463.83;1679568;79;21855;-55
2023/08/15 08:47:49;;;;;;;4.53;3.20;;;;;;;26.56;72.86;101466.16;1664204;81;21699;-54
2023/08/15 08:53:24;;;;;;;3.67;3.00;;;;;;;26.68;72.47;101454.88;1709729;78;21236;-55
2023/08/15 08:59:09;;;;;;;5.47;3.40;;;;;;;26.79;71.92;101456.75;1696905;79;21767;-54
2023/08/15 09:02:18;;;;;;;4.12;3.17;;;;;;;26.82;71.72;101447.25;1678607;82;21196;-54
2023/08/15 09:05:24;;;;;;;6.80;3.25;;;;;;;26.87;71.51;101448.74;1695616;82;21298;-54
2023/08/15 09:08:30;;;;;;;7.75;3.08;;;;;;;26.93;71.22;101440.68;1640486;82;21793;-54
2023/08/15 09:11:42;;;;;;;5.62;3.12;;;;;;;26.95;70.90;101439.88;1696200;79;21208;-54
2023/08/15 09:14:48;;;;;;;4.47;2.85;;;;;;;26.98;70.65;101436.55;1693344;79;21260;-55
2023/08/15 09:17:54;;;;;;;8.98;3.20;;;;;;;27.00;70.36;101428.72;1677639;82;21256;-55
2023/08/15 09:21:02;;;;;;;4.35;2.85;;;;;;;27.02;70.11;101432.67;1677143;81;21396;-55
2023/08/15 09:24:10;;;;;;;4.85;2.77;;;;;;;27.07;69.92;101432.72;1626566;84;21285;-54
2023/08/15 09:27:15;;;;;;;4.62;2.72;;;;;;;27.14;69.78;101431.45;1641535;82;21803;-54
2023/08/15 09:32:52;;;;;;;5.17;3.35;;;;;;;27.26;69.33;101427.09;1699089;82;21252;-55
2023/08/15 09:41:02;;;;;;;5.15;2.70;;;;;;;27.46;68.68;101433.05;1721677;80;21651;-55
2023/08/15 09:44:09;;;;;;;4.97;2.87;;;;;;;27.51;68.49;101439.57;1699250;79;21248;-54
2023/08/15 09:49:44;;;;;;;4.53;2.62;;;;;;;27.62;67.91;101439.16;1687213;82;21322;-55
2023/08/15 09:57:52;;;;;;;5.00;2.70;;;;;;;27.78;67.26;101443.30;1703216;80;21315;-55
2023/08/15 10:03:44;;;;;;;6.08;3.15;;;;;;;27.89;66.78;101440.64;1703830;79;21918;-53
2023/08/15 10:06:54;;;;;;;6.45;3.00;;;;;;;27.89;66.49;101438.69;1680442;80;21256;-54
2023/08/15 10:12:30;;;;;;;3.77;2.55;;;;;;;28.01;66.04;101438.51;1708610;80;21280;-53
2023/08/15 10:15:37;;;;;;;3.42;2.92;;;;;;;28.06;65.70;101439.98;1639660;82;21308;-51
2023/08/15 10:18:43;;;;;;;4.00;2.67;;;;;;;28.09;65.39;101431.00;1685738;78;21243;-52
2023/08/15 10:24:19;;;;;;;6.00;3.60;;;;;;;28.24;65.01;101431.16;1702150;80;21232;-54
2023/08/15 10:30:04;;;;;;;4.40;3.20;;;;;;;28.37;64.60;101425.10;1657002;81;21248;-54
2023/08/15 10:36:05;;;;;;;4.60;2.65;;;;;;;28.48;64.25;101412.25;1705393;79;21387;-53
2023/08/15 10:39:12;;;;;;;4.30;2.85;;;;;;;28.57;64.09;101407.84;1698567;80;21326;-52
2023/08/15 10:42:17;;;;;;;6.40;3.12;;;;;;;28.66;63.87;101401.98;1695006;79;21235;-55
2023/08/15 10:45:23;;;;;;;6.55;2.80;;;;;;;28.74;63.78;101402.03;1657743;82;21243;-54
2023/08/15 10:48:54;;;;;;;4.28;2.90;;;;;;;28.84;63.68;101398.71;1633763;81;21248;-56
2023/08/15 10:54:34;;;;;;;3.92;2.70;;;;;;;29.03;63.20;101399.97;1689891;80;21256;-54
2023/08/15 10:57:41;;;;;;;4.53;3.08;;;;;;;29.09;62.97;101401.75;1709415;78;21223;-54
2023/08/15 11:00:49;;;;;;;4.03;2.50;;;;;;;29.19;62.80;101403.78;1702030;79;21236;-52
2023/08/15 11:06:23;;;;;;;5.25;3.05;;;;;;;29.41;62.41;101402.19;1705975;79;21323;-52
2023/08/15 11:11:58;;;;;;;3.27;2.60;;;;;;;29.63;62.03;101391.55;1680530;81;21276;-51
2023/08/15 11:17:32;;;;;;;3.92;2.60;;;;;;;29.74;61.59;101382.87;1701832;79;21247;-51
2023/08/15 11:23:08;;;;;;;3.98;2.67;;;;;;;29.99;61.23;101375.86;1701876;80;21322;-53
2023/08/15 11:28:42;;;;;;;4.85;3.30;;;;;;;30.12;60.74;101364.02;1692845;80;21229;-53
2023/08/15 11:31:48;;;;;;;3.62;2.70;;;;;;;30.19;60.57;101365.16;1705776;79;21243;-53
2023/08/15 11:37:23;;;;;;;3.95;2.60;;;;;;;30.35;59.97;101366.31;1698268;80;21317;-53
2023/08/15 11:42:59;;;;;;;5.22;2.98;;;;;;;30.34;59.30;101356.15;1708223;80;21237;-55
2023/08/15 11:51:05;;;;;;;4.60;3.10;;;;;;;30.35;58.71;101355.01;1693708;81;22394;-55
2023/08/15 11:54:10;;;;;;;4.70;2.80;;;;;;;30.37;58.44;101351.34;1708171;80;21663;-55
2023/08/15 11:59:46;;;;;;;4.58;2.75;;;;;;;30.28;57.80;101350.22;1712812;80;21216;-54
2023/08/15 12:05:33;;;;;;;4.00;3.05;;;;;;;30.37;57.77;101344.28;1678166;81;21851;-55
2023/08/15 12:08:37;;;;;;;6.22;2.77;;;;;;;30.42;57.59;101344.83;1696556;81;21798;-57
2023/08/15 12:11:45;;;;;;;4.55;2.98;;;;;;;30.42;57.30;101338.63;1697915;79;21259;-57
2023/08/15 12:14:51;;;;;;;3.42;2.55;;;;;;;30.37;56.92;101328.73;1698107;78;21295;-56
2023/08/15 12:20:28;;;;;;;5.70;3.00;;;;;;;30.36;56.53;101334.11;1668921;81;21216;-56
2023/08/15 12:23:33;;;;;;;4.42;2.95;;;;;;;30.34;56.28;101333.55;1679825;82;21240;-56
2023/08/15 12:26:39;;;;;;;3.80;2.67;;;;;;;30.31;56.06;101334.11;1696465;77;21257;-58
2023/08/15 12:29:47;;;;;;;5.55;2.83;;;;;;;30.23;55.75;101329.03;1693269;80;21362;-58
2023/08/15 12:32:55;;;;;;;3.75;2.33;;;;;;;30.17;55.59;101326.45;1710636;80;21208;-57
2023/08/15 12:35:40;;;;;;;6.72;2.98;;;;;;;30.14;55.48;101326.45;1687526;79;21210;-57
2023/08/15 12:38:08;;;;;;;3.00;2.60;;;;;;;30.11;55.32;101319.93;1703556;81;21769;-50
2023/08/15 12:40:52;;;;;;;4.15;2.90;;;;;;;30.09;55.25;101319.94;1700666;79;21948;-53
2023/08/15 12:43:58;;;;;;;4.08;2.55;;;;;;;30.09;55.15;101317.98;1703158;79;21331;-60
2023/08/15 12:47:04;;;;;;;3.92;2.80;;;;;;;30.09;55.07;101312.88;1644244;83;21392;-55
2023/08/15 12:52:40;;;;;;;3.52;2.70;;;;;;;30.09;54.75;101310.91;1710521;79;21620;-55
2023/08/15 12:56:00;;;;;;;3.95;2.80;;;;;;;30.06;54.60;101310.63;1711095;78;21733;-58
2023/08/15 12:59:12;;;;;;;3.62;2.80;;;;;;;30.01;54.31;101303.55;1706687;78;21212;-58
2023/08/15 13:04:59;;;;;;;5.20;3.12;;;;;;;29.96;54.06;101295.93;1700278;79;21587;-56
2023/08/15 13:08:20;;;;;;;5.78;2.80;;;;;;;29.97;53.97;101298.20;1704462;80;21266;-57
2023/08/15 13:13:57;;;;;;;6.00;2.83;;;;;;;29.96;53.74;101295.93;1684530;80;21629;-61
2023/08/15 13:19:36;;;;;;;3.80;2.42;;;;;;;29.94;53.54;101291.12;1673812;78;21259;-60
2023/08/15 13:25:13;;;;;;;3.52;2.83;;;;;;;29.98;53.38;101297.06;1707458;78;21244;-61
2023/08/15 13:30:47;;;;;;;4.00;2.70;;;;;;;29.99;53.25;101287.44;1679453;81;21804;-59
2023/08/15 13:36:24;;;;;;;5.22;2.90;;;;;;;30.03;53.10;101292.24;1680872;81;22187;-59
2023/08/15 13:44:29;;;;;;;7.55;3.15;;;;;;;30.07;52.93;101291.12;1698574;80;21163;-60
2023/08/15 13:47:37;;;;;;;7.03;2.85;;;;;;;30.10;52.83;101286.31;1696882;80;21776;-59
2023/08/15 13:50:44;;;;;;;5.62;3.37;;;;;;;30.11;52.65;101283.79;1674447;82;21250;-58
2023/08/15 13:56:19;;;;;;;6.62;3.15;;;;;;;30.07;52.52;101295.36;1697229;80;21803;-59
2023/08/15 14:01:55;;;;;;;5.92;2.95;;;;;;;30.07;52.43;101287.74;1663994;81;21259;-60
2023/08/15 14:07:30;;;;;;;3.70;2.83;;;;;;;30.19;52.37;101286.88;1711695;80;21708;-57
2023/08/15 14:13:05;;;;;;;5.58;2.80;;;;;;;30.24;52.16;101288.32;1676650;81;21282;-55
2023/08/15 14:18:40;;;;;;;4.72;3.52;;;;;;;30.22;52.30;101279.27;1699776;80;21232;-56
2023/08/15 14:24:14;;;;;;;5.45;3.37;;;;;;;30.22;52.27;101282.10;1697854;80;21820;-55
2023/08/15 14:29:50;;;;;;;4.03;3.02;;;;;;;30.22;52.16;101277.86;1732301;80;21212;-55
2023/08/15 14:32:55;;;;;;;4.17;3.22;;;;;;;30.19;52.03;101275.58;1737315;80;21382;-56
2023/08/15 14:38:32;;;;;;;5.80;3.00;;;;;;;30.13;52.08;101276.72;1727588;79;21776;-57
2023/08/15 14:41:37;;;;;;;5.28;3.00;;;;;;;30.14;52.08;101274.75;1728100;80;21252;-58
2023/08/15 14:47:11;;;;;;;8.10;3.20;;;;;;;30.15;52.13;101266.54;1732617;80;21203;-57
2023/08/15 14:50:17;;;;;;;9.40;3.58;;;;;;;30.15;52.15;101265.98;1717113;79;21199;-57
2023/08/15 14:58:21;;;;;;;5.53;3.15;;;;;;;30.21;51.98;101265.43;1714856;79;21761;-57
2023/08/15 15:01:26;;;;;;;5.30;2.90;;;;;;;30.18;51.95;101271.62;1705037;80;21227;-57
2023/08/15 15:07:02;;;;;;;4.40;3.05;;;;;;;30.15;52.01;101258.06;1680144;82;21249;-57
2023/08/15 15:12:38;;;;;;;5.05;3.47;;;;;;;30.12;51.97;101263.73;1714986;81;21220;-57
2023/08/15 15:18:14;;;;;;;6.17;3.20;;;;;;;30.09;51.93;101262.89;1700159;80;21307;-57
2023/08/15 15:26:17;;;;;;;7.00;3.70;;;;;;;30.05;51.96;101264.56;1681964;81;21228;-57
2023/08/15 15:31:52;;;;;;;6.90;3.30;;;;;;;29.98;51.83;101255.55;1671838;82;21303;-57
2023/08/15 15:37:28;;;;;;;5.67;2.60;;;;;;;30.01;51.81;101247.92;1671201;81;21318;-54
2023/08/15 15:40:35;;;;;;;3.58;2.80;;;;;;;30.11;51.83;101252.72;1699770;80;21794;-54
2023/08/15 15:43:33;;;;;;;4.42;2.75;;;;;;;30.12;51.81;101249.60;1714841;79;21730;-53
2023/08/15 15:46:41;;;;;;;5.85;3.02;;;;;;;30.09;51.77;101255.83;1699879;80;21358;-55
2023/08/15 15:54:47;;;;;;;3.85;2.92;;;;;;;29.94;51.78;101252.17;1707115;78;21335;-55
2023/08/15 16:00:24;;;;;;;4.92;2.90;;;;;;;29.94;51.72;101256.41;1713770;80;21389;-55
2023/08/15 16:06:00;;;;;;;6.30;3.15;;;;;;;30.01;51.51;101252.16;1712471;79;21287;-54
2023/08/15 16:11:35;;;;;;;5.55;3.02;;;;;;;29.86;51.47;101247.08;1699079;80;21239;-54
2023/08/15 16:17:11;;;;;;;11.85;4.35;;;;;;;29.64;51.69;101247.33;1701496;79;21198;-53
2023/08/15 16:22:49;;;;;;;6.10;4.47;;;;;;;29.46;52.03;101250.67;1678126;79;21247;-56
2023/08/15 16:28:23;;;;;;;7.22;5.37;;;;;;;29.22;52.27;101239.61;1697909;81;21239;-55
2023/08/15 16:31:30;;;;;;;10.85;5.08;;;;;;;29.13;52.42;101244.07;1704395;80;21252;-55
2023/08/15 16:37:05;;;;;;;8.53;5.45;;;;;;;28.85;53.05;101247.32;1695963;81;21270;-55
2023/08/15 16:42:41;;;;;;;9.35;5.87;;;;;;;28.61;53.15;101254.53;1664732;81;21212;-55
2023/08/15 16:48:16;;;;;;;10.93;5.78;;;;;;;28.37;53.63;101261.70;1714754;80;21319;-54
2023/08/15 16:51:23;;;;;;;8.85;5.30;;;;;;;28.25;53.79;101257.67;1697038;80;21251;-54
2023/08/15 16:56:58;;;;;;;12.40;6.40;;;;;;;27.98;54.25;101267.30;1703663;80;21742;-54
2023/08/15 17:00:03;;;;;;;11.28;7.55;;;;;;;27.86;54.52;101261.25;1689202;80;21236;-55
2023/08/15 17:05:39;;;;;;;17.20;7.92;;;;;;;27.57;55.10;101272.54;1700263;80;21280;-55
2023/08/15 17:11:13;;;;;;;14.10;8.93;;;;;;;27.28;55.60;101279.52;1709988;80;21442;-54
2023/08/15 17:14:19;;;;;;;15.32;8.60;;;;;;;27.15;55.80;101279.03;1702874;79;21711;-54
2023/08/15 17:20:01;;;;;;;18.67;10.48;;;;;;;26.85;56.39;101283.73;1714250;80;21397;-55
2023/08/15 17:25:21;;;;;;;30.02;16.85;;;;;;;26.59;56.95;101280.25;1699687;80;21264;-54
2023/08/15 17:28:28;;;;;;;34.00;18.57;;;;;;;26.47;57.24;101294.95;1702108;81;21249;-55
2023/08/15 17:31:33;;;;;;;42.60;21.85;;;;;;;26.34;57.57;101293.89;1700301;80;21764;-54
2023/08/15 17:37:10;;;;;;;34.15;19.02;;;;;;;26.08;58.20;101297.42;1701454;80;21275;-55
2023/08/15 17:45:16;;;;;;;37.50;17.20;;;;;;;25.77;59.00;101300.75;1702005;79;21970;-54
2023/08/15 17:48:22;;;;;;;30.55;15.50;;;;;;;25.69;59.24;101306.23;1718576;80;21252;-54
2023/08/15 17:53:57;;;;;;;25.40;15.72;;;;;;;25.46;59.79;101299.89;1703795;80;21267;-55
2023/08/15 18:02:00;;;;;;;23.57;13.60;;;;;;;25.18;60.54;101298.47;1661553;81;21308;-55
2023/08/15 18:07:36;;;;;;;25.30;13.35;;;;;;;25.01;61.07;101306.79;1676372;83;21275;-55
2023/08/15 18:15:42;;;;;;;19.70;13.75;;;;;;;24.78;61.87;101308.27;1724243;80;21818;-54
2023/08/15 18:18:48;;;;;;;25.88;15.55;;;;;;;24.72;62.11;101309.25;1720790;80;21283;-54
2023/08/15 18:24:21;;;;;;;30.08;16.73;;;;;;;24.60;62.74;101312.03;1724660;79;21487;-54
2023/08/15 18:27:26;;;;;;;29.00;15.25;;;;;;;24.55;62.97;101309.10;1722984;82;21733;-54
2023/08/15 18:33:02;;;;;;;25.35;14.60;;;;;;;24.43;63.53;101310.20;1699542;79;21223;-55
2023/08/15 18:36:09;;;;;;;24.43;15.40;;;;;;;24.38;63.72;101313.74;1664120;80;21231;-55
2023/08/15 18:39:00;;;;;;;22.32;15.88;;;;;;;24.32;63.98;101307.73;1684196;80;21267;-54
2023/08/15 18:42:06;;;;;;;24.45;15.32;;;;;;;24.26;64.12;101307.84;1702349;79;21245;-54
2023/08/15 18:47:38;;;;;;;19.57;13.08;;;;;;;24.12;64.60;101311.41;1707026;80;21307;-56
2023/08/15 18:53:14;;;;;;;25.68;15.38;;;;;;;24.04;65.03;101313.16;1694784;80;21355;-55
2023/08/15 18:58:50;;;;;;;34.70;16.55;;;;;;;23.94;65.37;101311.48;1698176;81;21256;-55
2023/08/15 19:01:55;;;;;;;26.97;13.28;;;;;;;23.89;65.52;101312.75;1691203;79;21604;-54
2023/08/15 19:07:30;;;;;;;15.15;11.03;;;;;;;23.81;65.96;101310.30;1682791;80;21231;-55
2023/08/15 19:15:36;;;;;;;21.30;13.15;;;;;;;23.68;66.43;101313.30;1699869;80;21324;-55
2023/08/15 19:21:12;;;;;;;22.60;15.75;;;;;;;23.56;66.67;101309.63;1702670;82;21390;-54
2023/08/15 19:26:50;;;;;;;32.98;20.35;;;;;;;23.43;66.86;101307.89;1699315;80;21397;-54
2023/08/15 19:32:26;;;;;;;36.08;24.07;;;;;;;23.32;67.12;101317.61;1709155;80;21228;-54
2023/08/15 19:38:02;;;;;;;35.58;24.45;;;;;;;23.20;67.49;101309.67;1698079;80;21227;-55
2023/08/15 19:43:37;;;;;;;34.13;21.80;;;;;;;23.09;67.74;101308.53;1657228;83;21236;-56
2023/08/15 19:49:12;;;;;;;34.23;21.37;;;;;;;23.00;68.08;101314.14;1698879;78;21377;-56
2023/08/15 19:54:48;;;;;;;32.13;20.23;;;;;;;22.96;68.56;101314.85;1711603;80;21367;-55
2023/08/15 19:57:54;;;;;;;34.65;21.57;;;;;;;22.92;68.67;101310.80;1695018;80;21448;-56
2023/08/15 20:05:58;;;;;;;37.50;22.10;;;;;;;22.84;69.22;101309.72;1642251;82;21251;-55
2023/08/15 20:11:35;;;;;;;29.57;18.77;;;;;;;22.78;69.55;101301.75;1680584;82;21743;-55
2023/08/15 20:17:11;;;;;;;21.52;14.68;;;;;;;22.76;69.92;101303.05;1704506;80;21907;-55
2023/08/15 20:22:46;;;;;;;24.20;16.25;;;;;;;22.72;70.14;101308.80;1704245;80;21895;-55
2023/08/15 20:28:22;;;;;;;21.55;13.88;;;;;;;22.65;70.30;101308.02;1698214;80;21197;-54
2023/08/15 20:31:31;;;;;;;19.48;13.95;;;;;;;22.61;70.40;101311.80;1705391;79;21295;-55
2023/08/15 20:37:07;;;;;;;20.50;14.90;;;;;;;22.53;70.64;101312.67;1708823;80;21239;-55
2023/08/15 20:45:15;;;;;;;18.42;13.85;;;;;;;22.40;70.88;101317.82;1708123;80;21227;-55
2023/08/15 20:48:24;;;;;;;17.98;12.68;;;;;;;22.36;70.97;101319.91;1702586;81;21271;-55
2023/08/15 20:51:31;;;;;;;17.30;12.45;;;;;;;22.32;71.10;101321.44;1708360;79;21263;-54
2023/08/15 20:54:36;;;;;;;19.75;13.00;;;;;;;22.27;71.24;101320.73;1706071;80;21272;-54
2023/08/15 20:57:43;;;;;;;14.65;11.28;;;;;;;22.23;71.38;101324.52;1683113;80;21257;-55
2023/08/15 21:00:52;;;;;;;13.40;11.45;;;;;;;22.19;71.52;101318.23;1706012;83;21236;-55
2023/08/15 21:06:28;;;;;;;15.03;9.73;;;;;;;22.12;71.77;101319.69;1702377;80;21405;-55
2023/08/15 21:12:03;;;;;;;11.00;9.90;;;;;;;22.06;72.03;101322.53;1709210;80;21430;-56
2023/08/15 21:17:38;;;;;;;15.43;9.95;;;;;;;22.01;72.23;101317.64;1709437;80;21419;-56
2023/08/15 21:23:14;;;;;;;11.20;10.00;;;;;;;21.95;72.39;101317.16;1705741;80;21445;-56
2023/08/15 21:28:50;;;;;;;11.65;10.00;;;;;;;21.90;72.54;101315.59;1705805;79;21276;-55
2023/08/15 21:34:26;;;;;;;16.57;10.40;;;;;;;21.83;72.66;101312.55;1712661;81;21394;-56
2023/08/15 21:40:01;;;;;;;13.25;9.98;;;;;;;21.77;72.86;101310.67;1678317;79;21510;-56
2023/08/15 21:43:07;;;;;;;14.83;10.30;;;;;;;21.74;72.94;101306.91;1695934;80;21968;-56
2023/08/15 21:48:41;;;;;;;12.65;10.15;;;;;;;21.70;73.28;101312.61;1701758;79;21240;-55
2023/08/15 21:59:15;;;;;;;11.20;10.13;;;;;;;21.63;73.66;101299.25;1703125;80;21208;-55
2023/08/15 22:02:22;;;;;;;12.28;10.18;;;;;;;21.62;73.75;101308.17;1707272;80;21282;-54
2023/08/15 22:05:29;;;;;;;11.50;10.10;;;;;;;21.59;73.81;101307.23;1708851;82;21235;-53
2023/08/15 22:11:05;;;;;;;11.73;10.55;;;;;;;21.55;74.04;101306.52;1706548;80;21357;-53
2023/08/15 22:19:09;;;;;;;12.50;10.15;;;;;;;21.47;74.28;101310.41;1679559;80;21244;-54